• Join FlightAware (Why Join?)
  • Login
  • US Flag 
03:11PM EDT


 

Airport Tracker/Info


-or-


 

Live Flight TrackerFlight Track Log ✈ ASQ5964 ✈ 26-Jul-2014 ✈ KDEN - KTYS

Flight Track Log - Related Links

Times and Time Zones

All times are in EDT time to prevent confusion due to time zone crossing. See the ASQ5964 flight status page for this flight to view local times or setup timezone preferences in your user account.

Time Position Orientation Groundspeed Altitude Reporting Facility
EDT Latitude Longitude Course Direction KTS MPH feet Rate Location/Type
08:28PM 39.8833 -104.6000 102° East 182 209 6,300  Level Denver TRACON
08:29PM 39.8667 -104.5000 102° East 239 275 7,500 1,080 Climbing Denver TRACON
08:30PM 39.8522 -104.4592 115° Southeast 253 291 8,100 1,740 Climbing Denver Center
08:31PM 39.8353 -104.3489 101° East 286 329 10,300 1,380 Climbing Denver Center
08:32PM 39.8181 -104.2375 101° East 314 361 11,000 780 Climbing Denver Center
08:33PM 39.7994 -104.1111 101° East 353 406 12,000 1,140 Climbing Denver Center
08:34PM 39.7767 -103.9694 102° East 372 428 13,400 1,260 Climbing Denver Center
08:35PM 39.7558 -103.8364 101° East 376 433 14,700 1,260 Climbing Denver Center
08:36PM 39.7394 -103.7031 99° East 366 421 16,100 1,320 Climbing Denver Center
08:37PM 39.7275 -103.5675 96° East 369 425 17,500 1,200 Climbing Denver Center
08:38PM 39.7169 -103.4283 96° East 385 443 18,600 1,320 Climbing Denver Center
08:39PM 39.7036 -103.2644 96° East 384 442 20,300 1,440 Climbing Denver Center
08:40PM 39.6917 -103.1278 96° East 383 441 21,600 1,140 Climbing Denver Center
08:41PM 39.6811 -102.9889 96° East 385 443 22,700 1,080 Climbing Denver Center
08:42PM 39.6639 -102.8481 99° East 389 448 23,900 1,080 Climbing Denver Center
08:43PM 39.6467 -102.7006 99° East 398 458 25,000 1,080 Climbing Denver Center
08:44PM 39.6281 -102.5419 99° East 398 458 26,200 960 Climbing Denver Center
08:45PM 39.6122 -102.4092 99° East 393 452 27,000 660 Climbing Denver Center
08:46PM 39.5964 -102.2722 98° East 398 458 27,600 600 Climbing Denver Center
08:47PM 39.5750 -102.1036 99° East 422 486 28,300 600 Climbing Denver Center
08:48PM 39.5564 -101.9539 99° East 432 497 28,900 600 Climbing Denver Center
08:49PM 39.5342 -101.7767 99° East 444 511 29,600 660 Climbing Denver Center
08:50PM 39.5139 -101.6228 100° East 449 517 30,300 780 Climbing Denver Center
08:51PM 39.4914 -101.4439 99° East 449 517 31,200 900 Climbing Denver Center
08:52PM 39.4722 -101.2906 99° East 449 517 32,200 1,200 Climbing Denver Center
08:53PM 39.4494 -101.1175 100° East 443 510 33,700 1,260 Climbing Denver Center
08:54PM 39.4311 -100.9742 99° East 429 494 34,900 600 Climbing Denver Center
08:55PM 39.4117 -100.8317 100° East 425 489 35,000  Climbing Denver Center
08:56PM 39.3875 -100.6547 100° East 444 511 35,000  Level Denver Center
08:57PM 39.3653 -100.4950 100° East 465 535 35,000  Level Denver Center
08:59PM 39.3392 -100.3019 100° East 485 558 35,000  Level Denver Center
09:00PM 39.3156 -100.1333 100° East 494 568 35,000  Level Denver Center
09:01PM 39.2878 -99.9342 100° East 502 578 35,000  Level Denver Center
09:02PM 39.2628 -99.7606 100° East 511 588 35,000  Level Denver Center
09:03PM 39.2342 -99.5586 100° East 512 589 35,000  Level Denver Center
09:04PM 39.2083 -99.3853 101° East 513 590 35,000  Level Denver Center
09:05PM 39.1811 -99.2047 101° East 513 590 35,000  Level Denver Center
09:05PM 39.1697 -99.1181 100° East 513 590 35,000  Level Kansas City Center
09:06PM 39.1372 -98.9008 101° East 513 590 35,000  Level Kansas City Center
09:07PM 39.1103 -98.7197 101° East 514 592 35,000  Level Kansas City Center
09:08PM 39.0822 -98.5400 101° East 514 592 35,000  Level Kansas City Center
09:09PM 39.0536 -98.3592 101° East 514 592 35,000  Level Kansas City Center
09:10PM 39.0250 -98.1792 102° East 514 592 35,000  Level Kansas City Center
09:11PM 38.9969 -97.9978 101° East 514 592 35,000  Level Kansas City Center
09:12PM 38.9686 -97.8256 102° East 514 592 35,000  Level Kansas City Center
09:13PM 38.9397 -97.6483 102° East 513 590 35,000  Level Kansas City Center
09:14PM 38.9083 -97.4581 102° East 516 594 35,000  Level Kansas City Center
09:15PM 38.8789 -97.2775 102° East 517 595 35,000  Level Kansas City Center
09:17PM 38.8481 -97.0975 102° East 517 595 35,000  Level Kansas City Center
09:18PM 38.8122 -96.8822 102° East 517 595 35,000  Level Kansas City Center
09:19PM 38.7831 -96.7042 102° East 515 593 35,000  Level Kansas City Center
09:20PM 38.7519 -96.5256 103° East 513 590 35,000  Level Kansas City Center
09:21PM 38.7206 -96.3608 104° East 513 590 35,000  Level Kansas City Center
09:22PM 38.6892 -96.1833 103° East 514 592 35,000  Level Kansas City Center
09:23PM 38.6514 -95.9697 103° East 516 594 35,000  Level Kansas City Center
09:24PM 38.6200 -95.7939 103° East 515 593 35,000  Level Kansas City Center
09:25PM 38.5875 -95.6167 103° East 515 593 35,000  Level Kansas City Center
09:26PM 38.5547 -95.4394 103° East 515 593 35,000  Level Kansas City Center
09:27PM 38.5233 -95.2636 103° East 515 593 35,000  Level Kansas City Center
09:28PM 38.4894 -95.0856 104° East 515 593 35,000  Level Kansas City Center
09:29PM 38.4567 -94.9111 103° East 515 593 35,000  Level Kansas City Center
09:30PM 38.4172 -94.7000 103° East 515 593 35,000  Level Kansas City Center
09:31PM 38.3831 -94.5242 104° East 514 592 35,000  Level Kansas City Center
09:32PM 38.3489 -94.3492 104° East 514 592 35,000  Level Kansas City Center
09:33PM 38.3153 -94.1747 104° East 512 589 35,000  Level Kansas City Center
09:34PM 38.2781 -93.9878 104° East 512 589 35,000  Level Kansas City Center
09:35PM 38.2417 -93.8125 105° East 512 589 35,000  Level Kansas City Center
09:36PM 38.2067 -93.6358 104° East 512 589 35,000  Level Kansas City Center
09:37PM 38.1717 -93.4606 104° East 512 589 35,000  Level Kansas City Center
09:38PM 38.1369 -93.2853 104° East 512 589 35,000  Level Kansas City Center
09:39PM 38.1011 -93.1100 105° East 512 589 35,000  Level Kansas City Center
09:40PM 38.0664 -92.9339 104° East 513 590 35,000  Level Kansas City Center
09:41PM 38.0292 -92.7608 105° East 513 590 35,000  Level Kansas City Center
09:42PM 37.9869 -92.5589 105° East 513 590 35,000  Level Kansas City Center
09:43PM 37.9500 -92.3853 105° East 513 590 35,000  Level Kansas City Center
09:44PM 37.9111 -92.2103 106° East 513 590 35,000  Level Kansas City Center
09:45PM 37.8758 -92.0447 105° East 513 590 35,000  Level Kansas City Center
09:46PM 37.8397 -91.8731 105° East 507 583 35,000  Level Kansas City Center
09:47PM 37.8019 -91.7014 106° East 507 583 35,000  Level Kansas City Center
09:48PM 37.7567 -91.4944 105° East 507 583 35,000  Level Kansas City Center
09:49PM 37.7175 -91.3217 106° East 508 585 35,000  Level Kansas City Center
09:50PM 37.6786 -91.1503 106° East 508 585 35,000  Level Kansas City Center
09:51PM 37.6397 -90.9792 106° East 508 585 35,000  Level Kansas City Center
09:52PM 37.6000 -90.8092 106° East 508 585 35,000  Level Kansas City Center
09:53PM 37.5628 -90.6403 105° East 508 585 35,000  Level Kansas City Center
09:54PM 37.5233 -90.4736 107° East 507 583 35,000  Level Kansas City Center
09:55PM 37.4853 -90.3072 106° East 504 580 35,000  Level Kansas City Center
09:56PM 37.4453 -90.1422 107° East 501 577 35,000  Level Kansas City Center
09:57PM 37.4039 -89.9656 106° East 500 575 35,000  Level Kansas City Center
09:58PM 37.3647 -89.7947 106° East 502 578 35,000  Level Kansas City Center
09:59PM 37.3247 -89.6281 107° East 502 578 35,000  Level Kansas City Center
10:00PM 37.2850 -89.4611 107° East 501 577 35,000  Level Kansas City Center
10:01PM 37.2439 -89.2953 107° East 500 575 35,000  Level Kansas City Center
10:02PM 37.2042 -89.1292 107° East 499 574 35,000  Level Kansas City Center
10:03PM 37.1631 -88.9636 107° East 498 573 35,000  Level Kansas City Center
10:05PM 37.1097 -88.7275 106° East 500 575 35,000  Level Memphis Center
10:06PM 37.0933 -88.5556 97° East 499 574 35,000  Level Memphis Center
10:07PM 37.0722 -88.3819 99° East 500 575 35,000  Level Memphis Center
10:08PM 37.0286 -88.2142 108° East 502 578 35,000  Level Memphis Center
10:09PM 36.9828 -88.0419 108° East 506 582 35,000  Level Memphis Center
10:10PM 36.9375 -87.8744 109° East 505 581 35,000  Level Memphis Center
10:11PM 36.8925 -87.7075 109° East 504 580 35,000  Level Memphis Center
10:12PM 36.8478 -87.5417 109° East 503 579 35,000  Level Memphis Center
10:13PM 36.8019 -87.3769 109° East 500 575 35,000 -240 Level Memphis Center
10:14PM 36.7564 -87.2117 109° East 500 575 34,600 -660 Descending Memphis Center
10:15PM 36.7111 -87.0469 109° East 499 574 33,700 -900 Descending Memphis Center
10:16PM 36.6658 -86.8833 109° East 495 570 32,800 -900 Descending Memphis Center
10:17PM 36.6200 -86.7183 109° East 495 570 32,000 -420 Descending Memphis Center
10:18PM 36.5733 -86.5558 110° East 494 568 32,000  Level Memphis Center
10:19PM 36.5267 -86.3933 110° East 492 566 32,000 -780 Level Memphis Center
10:20PM 36.4789 -86.2267 110° East 499 574 30,500 -1,860 Descending Memphis Center
10:21PM 36.4314 -86.0608 110° East 505 581 28,300 -2,220 Descending Memphis Center
10:22PM 36.3839 -85.8997 110° East 496 571 26,100 -2,340 Descending Memphis Center
10:23PM 36.3333 -85.7289 110° East 482 555 23,700 -2,280 Descending Memphis Center
10:24PM 36.2894 -85.5772 110° East 473 544 21,500 -1,380 Descending Memphis Center
10:25PM 36.2464 -85.4308 110° East 457 526 21,000 -300 Descending Memphis Center
10:26PM 36.2033 -85.2875 110° East 447 514 21,000  Level Memphis Center
10:27PM 36.1658 -85.1653 111° Southeast 448 516 21,000 -240 Level Atlanta Center
10:28PM 36.1233 -85.0206 110° East 448 516 20,600 -1,380 Descending Atlanta Center
10:29PM 36.0806 -84.8789 110° East 448 516 18,300 -2,700 Descending Atlanta Center
10:30PM 36.0397 -84.7422 110° East 436 502 15,300 -3,000 Descending Atlanta Center
10:31PM 35.9986 -84.6136 112° Southeast 413 475 12,300 -2,160 Descending Atlanta Center
10:32PM 35.9636 -84.4903 109° East 398 458 11,000 -1,020 Descending Atlanta Center
10:33PM 35.9431 -84.3875 104° East 353 406 10,300 -1,260 Descending Atlanta Center
10:34PM 35.9392 -84.2825 93° East 316 364 8,500 -1,500 Descending Atlanta Center
10:35PM 35.9436 -84.1822 87° East 298 343 7,300 -1,080 Descending Atlanta Center
10:36PM 35.9436 -84.0953 90° East 278 320 6,400 -1,200 Descending Atlanta Center
10:37PM 35.9436 -84.0131 90° East 256 295 4,900 -1,380 Descending Atlanta Center
10:38PM 35.9186 -83.9414 113° Southeast 235 270 3,700 -1,020 Descending Atlanta Center
10:39PM 35.8850 -83.9081 141° Southeast 166 191 2,900 -720 Descending Atlanta Center
10:40PM 35.8664 -83.9286 222° Southwest 109 125 2,300 -600 Descending Atlanta Center